Abbotsford, Wisconsin
Current Conditions -  °F | °C
As of 1:15 PM on Sunday 21 Dec 2014 (Local Time) from KMDZ Reporting Station
Light Snow Light Snow  
Wind Chill: 22°   Ceiling: 300
Heat Index: 31°   Visibility: 0.5mi
Dew Point: 31°   Wind: 12mph
Humidity: 99%   Direction: 150°SSE
Pressure: 29.89"   Gusts: 17mph
Location:  44.95°N, 90.32°W
Report Text: KMDZ 211915Z AUTO 15010G15KT 1/2SM -SN OVC003 00/00 A2989 RMK AO2 T10031005
Loading
Personal Weather Stations






























Interactive Weather Map New forecast layout! Learn more

10-Day Weather Forecast

Advertisements
Track Severe Weather on mobile